Time;durP1;ratioP1;P1;durP2;ratioP2;P2;SDS_P1;SDS_P2;PMS_P1;PMS_P2;Temp;Humidity;BMP_temperature;BMP_pressure;BME280_temperature;BME280_humidity;BME280_pressure;Samples;Min_cycle;Max_cycle;Signal;HPM_P1;HPM_P2
2024/01/26 00:01:38;;;;;;;92.97;31.92;;;;;;;;;;4921775;29;20050;-71
2024/01/26 00:04:04;;;;;;;99.25;33.78;;;;;;;;;;4917907;29;20035;-71
2024/01/26 00:06:31;;;;;;;106.13;33.00;;;;;;;;;;4917342;29;20078;-71
2024/01/26 00:08:57;;;;;;;94.32;31.88;;;;;;;;;;4927322;29;20118;-71
2024/01/26 00:11:23;;;;;;;87.82;32.08;;;;;;;;;;4933392;29;20534;-71
2024/01/26 00:13:49;;;;;;;92.68;33.20;;;;;;;;;;4918656;29;20128;-71
2024/01/26 00:16:15;;;;;;;91.65;32.88;;;;;;;;;;4919918;29;20052;-71
2024/01/26 00:18:41;;;;;;;98.60;33.67;;;;;;;;;;4917380;29;20055;-71
2024/01/26 00:21:08;;;;;;;95.38;32.28;;;;;;;;;;4906610;29;20135;-71
2024/01/26 00:23:35;;;;;;;96.80;33.05;;;;;;;;;;4899089;29;20047;-71
2024/01/26 00:26:01;;;;;;;93.55;33.45;;;;;;;;;;4898678;29;20059;-71
2024/01/26 00:28:27;;;;;;;96.03;32.22;;;;;;;;;;4898195;29;20044;-71
2024/01/26 00:30:53;;;;;;;98.22;32.80;;;;;;;;;;4898292;29;20100;-71
2024/01/26 00:33:19;;;;;;;87.03;33.00;;;;;;;;;;4910120;29;20462;-71
2024/01/26 00:35:45;;;;;;;96.05;32.50;;;;;;;;;;4917474;29;20075;-71
2024/01/26 00:38:11;;;;;;;88.55;32.20;;;;;;;;;;4898356;29;20080;-71
2024/01/26 00:40:37;;;;;;;86.82;32.85;;;;;;;;;;4905833;29;20050;-71
2024/01/26 00:43:03;;;;;;;85.03;31.52;;;;;;;;;;4898346;29;20051;-71
2024/01/26 00:45:29;;;;;;;84.57;32.97;;;;;;;;;;4898107;29;20112;-71
2024/01/26 00:47:55;;;;;;;82.60;29.80;;;;;;;;;;4898154;29;20044;-71
2024/01/26 00:50:21;;;;;;;81.68;31.83;;;;;;;;;;4916691;29;20071;-71
2024/01/26 00:52:47;;;;;;;80.80;29.55;;;;;;;;;;4917046;29;20039;-71
2024/01/26 00:55:13;;;;;;;74.85;29.92;;;;;;;;;;4916915;29;20046;-71
2024/01/26 00:57:39;;;;;;;75.68;29.40;;;;;;;;;;4930131;29;20137;-71
2024/01/26 01:00:07;;;;;;;68.63;28.65;;;;;;;;;;4934018;29;20047;-71
2024/01/26 01:02:33;;;;;;;70.80;28.73;;;;;;;;;;4917320;29;20676;-71
2024/01/26 01:04:59;;;;;;;70.07;29.27;;;;;;;;;;4908121;29;20048;-71
2024/01/26 01:07:25;;;;;;;76.93;29.60;;;;;;;;;;4897566;29;20054;-71
2024/01/26 01:09:51;;;;;;;70.72;28.60;;;;;;;;;;4927955;29;20040;-71
2024/01/26 01:12:18;;;;;;;66.15;28.75;;;;;;;;;;4923088;29;20135;-71
2024/01/26 01:14:44;;;;;;;74.13;30.08;;;;;;;;;;4897726;29;20079;-71
2024/01/26 01:17:11;;;;;;;70.72;30.52;;;;;;;;;;4923735;29;20069;-71
2024/01/26 01:19:37;;;;;;;67.00;27.40;;;;;;;;;;4916509;29;20063;-71
2024/01/26 01:22:03;;;;;;;67.25;28.13;;;;;;;;;;4915620;29;20458;-71
2024/01/26 01:24:29;;;;;;;69.70;29.20;;;;;;;;;;4912347;29;20333;-71
2024/01/26 01:26:55;;;;;;;66.68;28.52;;;;;;;;;;4897788;29;20102;-71
2024/01/26 01:29:21;;;;;;;68.78;28.42;;;;;;;;;;4897138;29;20044;-71
2024/01/26 01:31:47;;;;;;;68.97;29.52;;;;;;;;;;4897177;29;20047;-71
2024/01/26 01:34:13;;;;;;;67.50;30.65;;;;;;;;;;4914736;29;20048;-71
2024/01/26 01:36:39;;;;;;;70.13;30.20;;;;;;;;;;4911343;29;20115;-71
2024/01/26 01:39:07;;;;;;;67.40;30.08;;;;;;;;;;4898429;29;20043;-71
2024/01/26 01:41:33;;;;;;;65.43;29.45;;;;;;;;;;4927766;29;20063;-71
2024/01/26 01:43:59;;;;;;;62.00;28.35;;;;;;;;;;4934909;29;20049;-71
2024/01/26 01:46:26;;;;;;;64.13;28.27;;;;;;;;;;4935100;29;20039;-71
2024/01/26 01:48:52;;;;;;;62.30;29.25;;;;;;;;;;4928345;29;20036;-71
2024/01/26 01:51:18;;;;;;;55.75;26.00;;;;;;;;;;4915531;29;20039;-71
2024/01/26 01:53:44;;;;;;;64.35;28.95;;;;;;;;;;4916073;29;20044;-71
2024/01/26 01:56:11;;;;;;;56.90;26.00;;;;;;;;;;4915169;29;20058;-71
2024/01/26 01:58:41;;;;;;;53.40;26.70;;;;;;;;;;4880838;29;20062;-71
2024/01/26 02:01:07;;;;;;;46.83;22.70;;;;;;;;;;4904482;29;20054;-71
2024/01/26 02:03:33;;;;;;;50.83;25.23;;;;;;;;;;4915893;29;20043;-71
2024/01/26 02:05:59;;;;;;;50.03;24.90;;;;;;;;;;4901339;29;20064;-71
2024/01/26 02:08:25;;;;;;;47.95;24.02;;;;;;;;;;4898103;29;20047;-71
2024/01/26 02:10:51;;;;;;;44.00;22.63;;;;;;;;;;4932462;29;20039;-71
2024/01/26 02:13:17;;;;;;;47.03;23.45;;;;;;;;;;4897691;29;20434;-71
2024/01/26 02:15:43;;;;;;;45.45;23.50;;;;;;;;;;4896754;29;20044;-71
2024/01/26 02:18:09;;;;;;;43.22;22.52;;;;;;;;;;4927155;29;20046;-71
2024/01/26 02:20:35;;;;;;;41.90;22.00;;;;;;;;;;4932324;29;20053;-71
2024/01/26 02:23:01;;;;;;;43.17;22.38;;;;;;;;;;4934400;29;20050;-71
2024/01/26 02:25:27;;;;;;;36.65;19.88;;;;;;;;;;4923146;29;20039;-71
2024/01/26 02:27:53;;;;;;;35.08;19.90;;;;;;;;;;4896044;29;20047;-71
2024/01/26 02:30:19;;;;;;;36.67;21.88;;;;;;;;;;4896117;29;20047;-71
2024/01/26 02:32:45;;;;;;;34.47;20.23;;;;;;;;;;4900505;29;20047;-71
2024/01/26 02:35:11;;;;;;;38.30;21.48;;;;;;;;;;4915765;29;20557;-71
2024/01/26 02:37:37;;;;;;;38.42;20.95;;;;;;;;;;4914711;29;20043;-71
2024/01/26 02:40:04;;;;;;;36.45;20.45;;;;;;;;;;4915144;29;20044;-71
2024/01/26 02:42:30;;;;;;;35.63;20.10;;;;;;;;;;4932083;29;20059;-70
2024/01/26 02:44:56;;;;;;;33.50;19.70;;;;;;;;;;4929391;29;20065;-70
2024/01/26 02:47:22;;;;;;;35.72;20.50;;;;;;;;;;4914443;29;20039;-70
2024/01/26 02:49:48;;;;;;;34.60;20.50;;;;;;;;;;4915985;29;20038;-70
2024/01/26 02:52:14;;;;;;;33.08;19.25;;;;;;;;;;4914971;29;20036;-70
2024/01/26 02:54:40;;;;;;;34.00;18.08;;;;;;;;;;4896209;29;20044;-70
2024/01/26 02:57:06;;;;;;;31.42;18.80;;;;;;;;;;4901739;29;20047;-70
2024/01/26 02:59:32;;;;;;;31.05;18.40;;;;;;;;;;4931775;29;20055;-70
2024/01/26 03:01:58;;;;;;;33.70;19.77;;;;;;;;;;4886710;29;20048;-70
2024/01/26 03:04:24;;;;;;;30.30;18.48;;;;;;;;;;4881177;29;20044;-70
2024/01/26 03:06:51;;;;;;;29.48;17.52;;;;;;;;;;4934086;29;20082;-70
2024/01/26 03:09:17;;;;;;;31.10;17.65;;;;;;;;;;4926199;29;20044;-70
2024/01/26 03:11:43;;;;;;;30.30;18.63;;;;;;;;;;4908815;29;20040;-70
2024/01/26 03:14:10;;;;;;;32.42;18.48;;;;;;;;;;4923283;29;20062;-70
2024/01/26 03:16:40;;;;;;;31.38;19.35;;;;;;;;;;4932185;29;20066;-70
2024/01/26 03:19:07;;;;;;;32.17;18.88;;;;;;;;;;4914313;29;20055;-70
2024/01/26 03:21:33;;;;;;;32.35;18.45;;;;;;;;;;4913534;29;20047;-70
2024/01/26 03:23:59;;;;;;;30.77;18.05;;;;;;;;;;4918648;29;20106;-70
2024/01/26 03:26:25;;;;;;;31.92;18.65;;;;;;;;;;4920091;29;20538;-70
2024/01/26 03:28:53;;;;;;;30.17;17.65;;;;;;;;;;4899471;29;20052;-70
2024/01/26 03:31:19;;;;;;;34.28;18.60;;;;;;;;;;4883924;29;20414;-69
2024/01/26 03:33:45;;;;;;;33.13;19.45;;;;;;;;;;4909516;29;20048;-69
2024/01/26 03:36:12;;;;;;;31.67;19.08;;;;;;;;;;4918401;29;20082;-71
2024/01/26 03:38:38;;;;;;;31.75;19.77;;;;;;;;;;4934421;29;20138;-70
2024/01/26 03:41:04;;;;;;;34.15;19.55;;;;;;;;;;4908153;29;20183;-70
2024/01/26 03:43:30;;;;;;;34.53;18.88;;;;;;;;;;4925415;29;20051;-70
2024/01/26 03:45:56;;;;;;;35.67;19.50;;;;;;;;;;4918315;29;20114;-70
2024/01/26 03:48:22;;;;;;;34.10;19.20;;;;;;;;;;4917989;29;20055;-70
2024/01/26 03:50:48;;;;;;;30.80;17.95;;;;;;;;;;4935646;29;20429;-70
2024/01/26 03:53:14;;;;;;;34.67;19.65;;;;;;;;;;4937015;29;20035;-70
2024/01/26 03:55:40;;;;;;;35.97;18.80;;;;;;;;;;4937053;29;20058;-70
2024/01/26 03:58:06;;;;;;;35.13;19.90;;;;;;;;;;4924086;29;20648;-70
2024/01/26 04:00:32;;;;;;;39.40;19.80;;;;;;;;;;4917980;29;20044;-70
2024/01/26 04:02:58;;;;;;;35.53;19.60;;;;;;;;;;4899562;29;20047;-69
2024/01/26 04:05:24;;;;;;;36.10;19.15;;;;;;;;;;4905671;29;20482;-69
2024/01/26 04:07:50;;;;;;;33.78;18.67;;;;;;;;;;4917225;29;20069;-69
2024/01/26 04:10:16;;;;;;;33.72;18.70;;;;;;;;;;4904522;29;20048;-70
2024/01/26 04:12:42;;;;;;;35.28;19.45;;;;;;;;;;4898622;29;20165;-70
2024/01/26 04:15:08;;;;;;;33.83;19.20;;;;;;;;;;4883418;29;20036;-69
2024/01/26 04:17:34;;;;;;;36.78;19.98;;;;;;;;;;4890414;29;20047;-70
2024/01/26 04:20:00;;;;;;;35.65;18.23;;;;;;;;;;4916678;29;20118;-70
2024/01/26 04:22:26;;;;;;;34.30;17.77;;;;;;;;;;4898605;29;20048;-70
2024/01/26 04:24:52;;;;;;;33.70;17.83;;;;;;;;;;4900587;29;20109;-70
2024/01/26 04:27:18;;;;;;;32.47;19.30;;;;;;;;;;4901628;29;20036;-70
2024/01/26 04:29:44;;;;;;;32.45;19.13;;;;;;;;;;4914893;29;20757;-69
2024/01/26 04:32:10;;;;;;;30.77;18.10;;;;;;;;;;4936388;29;20055;-70
2024/01/26 04:34:37;;;;;;;36.47;18.40;;;;;;;;;;4935913;29;20049;-70
2024/01/26 04:37:04;;;;;;;39.92;18.33;;;;;;;;;;4933397;29;20122;-70
2024/01/26 04:39:31;;;;;;;31.52;18.58;;;;;;;;;;4916415;29;20394;-70
2024/01/26 04:41:57;;;;;;;30.30;18.80;;;;;;;;;;4927055;29;20059;-70
2024/01/26 04:44:24;;;;;;;32.10;18.88;;;;;;;;;;4935886;29;20047;-70
2024/01/26 04:46:53;;;;;;;29.88;18.15;;;;;;;;;;4919760;29;20596;-70
2024/01/26 04:49:19;;;;;;;34.88;19.27;;;;;;;;;;4921094;29;20058;-70
2024/01/26 04:51:45;;;;;;;35.00;20.23;;;;;;;;;;4936072;29;20770;-70
2024/01/26 04:54:11;;;;;;;31.73;19.35;;;;;;;;;;4924844;29;20119;-70
2024/01/26 04:56:37;;;;;;;32.15;19.83;;;;;;;;;;4934150;29;20155;-70
2024/01/26 04:59:03;;;;;;;36.13;19.77;;;;;;;;;;4898034;29;20048;-70
2024/01/26 05:01:29;;;;;;;29.25;17.92;;;;;;;;;;4903808;29;20042;-70
2024/01/26 05:03:55;;;;;;;40.53;20.13;;;;;;;;;;4901611;29;20437;-70
2024/01/26 05:06:21;;;;;;;33.22;20.23;;;;;;;;;;4921276;29;20040;-70
2024/01/26 05:08:47;;;;;;;35.60;19.55;;;;;;;;;;4897528;29;20111;-70
2024/01/26 05:11:13;;;;;;;32.28;18.73;;;;;;;;;;4897709;29;20491;-70
2024/01/26 05:13:39;;;;;;;34.95;20.13;;;;;;;;;;4897882;29;20066;-70
2024/01/26 05:16:06;;;;;;;32.85;20.23;;;;;;;;;;4897668;29;20040;-70
2024/01/26 05:18:32;;;;;;;33.08;19.67;;;;;;;;;;4899203;29;20052;-70
2024/01/26 05:20:59;;;;;;;33.63;20.55;;;;;;;;;;4904103;29;20474;-70
2024/01/26 05:23:25;;;;;;;35.90;21.58;;;;;;;;;;4897849;29;20052;-70
2024/01/26 05:25:51;;;;;;;35.97;20.92;;;;;;;;;;4900259;29;20450;-70
2024/01/26 05:28:17;;;;;;;33.00;20.40;;;;;;;;;;4897853;29;20036;-70
2024/01/26 05:30:43;;;;;;;34.70;20.10;;;;;;;;;;4911281;29;20046;-70
2024/01/26 05:33:09;;;;;;;30.77;20.90;;;;;;;;;;4918413;29;20040;-70
2024/01/26 05:35:35;;;;;;;35.80;22.13;;;;;;;;;;4935117;29;20074;-70
2024/01/26 05:38:01;;;;;;;35.42;20.05;;;;;;;;;;4926826;29;20087;-70
2024/01/26 05:40:27;;;;;;;35.15;20.45;;;;;;;;;;4915468;29;20079;-70
2024/01/26 05:42:53;;;;;;;32.13;20.50;;;;;;;;;;4900252;29;20699;-70
2024/01/26 05:45:19;;;;;;;39.92;21.67;;;;;;;;;;4902819;29;20413;-71
2024/01/26 05:47:47;;;;;;;33.22;21.05;;;;;;;;;;4935171;29;20050;-71
2024/01/26 05:50:14;;;;;;;34.58;20.98;;;;;;;;;;4910282;29;20082;-71
2024/01/26 05:52:41;;;;;;;35.65;21.45;;;;;;;;;;4897248;29;20048;-71
2024/01/26 05:55:07;;;;;;;33.38;21.27;;;;;;;;;;4930939;29;20044;-71
2024/01/26 05:57:33;;;;;;;35.10;20.17;;;;;;;;;;4910663;29;20083;-71
2024/01/26 05:59:59;;;;;;;35.10;20.77;;;;;;;;;;4895745;29;20047;-71
2024/01/26 06:02:26;;;;;;;30.80;20.48;;;;;;;;;;4920236;29;20050;-71
2024/01/26 06:04:53;;;;;;;37.10;21.17;;;;;;;;;;4934645;29;20048;-71
2024/01/26 06:07:19;;;;;;;32.65;20.35;;;;;;;;;;4935085;29;20509;-71
2024/01/26 06:09:45;;;;;;;40.38;21.20;;;;;;;;;;4918792;29;20050;-71
2024/01/26 06:12:12;;;;;;;37.60;20.92;;;;;;;;;;4925023;29;20130;-71
2024/01/26 06:14:38;;;;;;;35.65;20.58;;;;;;;;;;4915913;29;20587;-71
2024/01/26 06:17:04;;;;;;;38.90;21.23;;;;;;;;;;4915085;29;20043;-71
2024/01/26 06:19:30;;;;;;;33.38;20.48;;;;;;;;;;4896655;29;20083;-70
2024/01/26 06:21:56;;;;;;;35.35;21.30;;;;;;;;;;4927367;29;20095;-70
2024/01/26 06:24:22;;;;;;;35.50;22.00;;;;;;;;;;4934608;29;20039;-70
2024/01/26 06:26:48;;;;;;;39.63;21.60;;;;;;;;;;4908360;29;20049;-70
2024/01/26 06:29:14;;;;;;;39.50;20.98;;;;;;;;;;4896310;29;20475;-70
2024/01/26 06:31:40;;;;;;;37.03;21.20;;;;;;;;;;4900386;29;20047;-71
2024/01/26 06:34:06;;;;;;;33.22;20.08;;;;;;;;;;4923078;29;20138;-71
2024/01/26 06:36:32;;;;;;;38.42;20.13;;;;;;;;;;4934082;29;20626;-71
2024/01/26 06:38:58;;;;;;;37.83;20.08;;;;;;;;;;4919358;29;20564;-70
2024/01/26 06:41:24;;;;;;;39.22;20.20;;;;;;;;;;4912178;29;20060;-73
2024/01/26 06:43:53;;;;;;;31.60;17.63;;;;;;;;;;4912130;29;20765;-72
2024/01/26 06:46:21;;;;;;;36.90;19.17;;;;;;;;;;4916239;29;20125;-72
2024/01/26 06:48:48;;;;;;;31.33;18.45;;;;;;;;;;4907590;29;20055;-72
2024/01/26 06:51:14;;;;;;;32.28;17.33;;;;;;;;;;4914906;29;20035;-70
2024/01/26 06:53:40;;;;;;;29.20;16.70;;;;;;;;;;4918707;29;20339;-71
2024/01/26 06:56:07;;;;;;;27.88;15.90;;;;;;;;;;4933903;29;20086;-71
2024/01/26 06:58:33;;;;;;;30.65;15.07;;;;;;;;;;4933880;29;20047;-72
2024/01/26 07:00:59;;;;;;;25.05;14.85;;;;;;;;;;4933150;29;20054;-76
2024/01/26 07:03:25;;;;;;;31.63;16.20;;;;;;;;;;4920717;29;20043;-70
2024/01/26 07:05:51;;;;;;;28.17;14.35;;;;;;;;;;4928552;29;20040;-75
2024/01/26 07:08:17;;;;;;;21.90;12.95;;;;;;;;;;4899331;29;20394;-76
2024/01/26 07:10:43;;;;;;;21.00;11.63;;;;;;;;;;4902672;29;20436;-73
2024/01/26 07:13:09;;;;;;;24.58;12.45;;;;;;;;;;4896813;29;20123;-64
2024/01/26 07:15:35;;;;;;;23.85;13.10;;;;;;;;;;4910498;29;20075;-65
2024/01/26 07:18:01;;;;;;;19.27;12.07;;;;;;;;;;4909557;29;20051;-66
2024/01/26 07:20:27;;;;;;;24.92;14.05;;;;;;;;;;4938617;29;20079;-67
2024/01/26 07:22:53;;;;;;;18.38;12.18;;;;;;;;;;4931615;29;20398;-68
2024/01/26 07:25:20;;;;;;;19.02;10.27;;;;;;;;;;4950153;29;20050;-68
2024/01/26 07:27:46;;;;;;;23.27;11.38;;;;;;;;;;4950553;29;20035;-67
2024/01/26 07:30:13;;;;;;;19.30;11.75;;;;;;;;;;4943679;29;20694;-67
2024/01/26 07:32:39;;;;;;;20.33;11.10;;;;;;;;;;4933513;29;20055;-68
2024/01/26 07:35:06;;;;;;;17.33;10.00;;;;;;;;;;4930854;29;20391;-67
2024/01/26 07:37:32;;;;;;;15.13;9.32;;;;;;;;;;4941752;29;20058;-66
2024/01/26 07:40:00;;;;;;;17.05;9.70;;;;;;;;;;4923959;29;20039;-67
2024/01/26 07:42:26;;;;;;;16.65;9.70;;;;;;;;;;4930604;29;20536;-68
2024/01/26 07:44:52;;;;;;;16.75;9.60;;;;;;;;;;4946061;29;20134;-67
2024/01/26 07:47:20;;;;;;;16.33;9.23;;;;;;;;;;4950168;29;20094;-66
2024/01/26 07:49:48;;;;;;;14.38;9.25;;;;;;;;;;4936235;29;20048;-67
2024/01/26 07:52:14;;;;;;;17.15;9.40;;;;;;;;;;4929814;29;20077;-67
2024/01/26 07:54:40;;;;;;;14.27;7.82;;;;;;;;;;4940784;29;20044;-66
2024/01/26 07:57:06;;;;;;;11.95;7.38;;;;;;;;;;4931420;29;20043;-69
2024/01/26 07:59:32;;;;;;;13.13;8.02;;;;;;;;;;4928897;29;20047;-69
2024/01/26 08:01:58;;;;;;;14.90;8.60;;;;;;;;;;4922094;29;20417;-69
2024/01/26 08:04:24;;;;;;;12.85;7.38;;;;;;;;;;4942080;29;20425;-69
2024/01/26 08:06:50;;;;;;;11.93;6.95;;;;;;;;;;4934748;29;20047;-68
2024/01/26 08:09:17;;;;;;;12.13;6.68;;;;;;;;;;4953067;29;20079;-69
2024/01/26 08:11:43;;;;;;;11.52;7.07;;;;;;;;;;4930501;29;20168;-67
2024/01/26 08:14:09;;;;;;;12.57;7.30;;;;;;;;;;4940819;29;20047;-69
2024/01/26 08:16:35;;;;;;;11.43;7.10;;;;;;;;;;4953629;29;20046;-68
2024/01/26 08:19:02;;;;;;;11.35;6.60;;;;;;;;;;4953481;29;20362;-67
2024/01/26 08:21:28;;;;;;;10.30;6.95;;;;;;;;;;4941303;29;20050;-68
2024/01/26 08:23:54;;;;;;;12.02;7.90;;;;;;;;;;4922910;29;20039;-67
2024/01/26 08:26:20;;;;;;;12.00;8.10;;;;;;;;;;4933946;29;20055;-68
2024/01/26 08:28:46;;;;;;;12.88;8.05;;;;;;;;;;4946619;29;20040;-68
2024/01/26 08:31:12;;;;;;;15.13;8.73;;;;;;;;;;4911607;29;20135;-68
2024/01/26 08:33:38;;;;;;;13.05;8.93;;;;;;;;;;4933051;29;20140;-65
2024/01/26 08:36:04;;;;;;;18.27;10.57;;;;;;;;;;4953384;29;20130;-66
2024/01/26 08:38:30;;;;;;;18.38;11.35;;;;;;;;;;4945329;29;20078;-66
2024/01/26 08:40:56;;;;;;;21.48;11.18;;;;;;;;;;4946888;29;20074;-66
2024/01/26 08:43:22;;;;;;;21.48;11.90;;;;;;;;;;4939054;29;20693;-66
2024/01/26 08:45:48;;;;;;;19.83;12.20;;;;;;;;;;4953269;29;20089;-67
2024/01/26 08:48:14;;;;;;;20.98;13.25;;;;;;;;;;4952750;29;20490;-68
2024/01/26 08:50:40;;;;;;;21.10;13.30;;;;;;;;;;4944004;29;20090;-69
2024/01/26 08:53:07;;;;;;;23.75;14.45;;;;;;;;;;4952143;29;20078;-67
2024/01/26 08:55:33;;;;;;;25.73;14.05;;;;;;;;;;4939535;29;20055;-69
2024/01/26 08:57:59;;;;;;;23.48;14.05;;;;;;;;;;4935514;29;20058;-68
2024/01/26 09:00:26;;;;;;;24.27;14.07;;;;;;;;;;4952578;29;20089;-66
2024/01/26 09:02:52;;;;;;;19.73;13.27;;;;;;;;;;4952460;29;20051;-65
2024/01/26 09:05:18;;;;;;;22.05;13.55;;;;;;;;;;4936970;29;20762;-65
2024/01/26 09:07:44;;;;;;;23.08;12.95;;;;;;;;;;4944603;29;20122;-66
2024/01/26 09:10:10;;;;;;;20.67;11.70;;;;;;;;;;4952165;29;20407;-73
2024/01/26 09:12:37;;;;;;;21.67;11.52;;;;;;;;;;4922287;29;20156;-73
2024/01/26 09:15:03;;;;;;;22.05;10.63;;;;;;;;;;4926880;29;20121;-71
2024/01/26 09:17:29;;;;;;;19.85;10.40;;;;;;;;;;4909545;29;20043;-71
2024/01/26 09:19:54;;;;;;;21.35;9.65;;;;;;;;;;4928766;29;20065;-71
2024/01/26 09:22:21;;;;;;;17.35;9.55;;;;;;;;;;4919961;29;20141;-72
2024/01/26 09:24:47;;;;;;;20.60;8.82;;;;;;;;;;4931089;29;20043;-73
2024/01/26 09:27:13;;;;;;;19.48;8.70;;;;;;;;;;4922026;29;20031;-69
2024/01/26 09:29:39;;;;;;;9.00;3.80;;;;;;;;;;4935152;29;20066;-71
2024/01/26 09:32:05;;;;;;;4.88;1.15;;;;;;;;;;4928842;29;20039;-71
2024/01/26 09:34:32;;;;;;;5.05;1.17;;;;;;;;;;4934567;29;20046;-71
2024/01/26 09:36:58;;;;;;;4.10;0.98;;;;;;;;;;4933556;29;20398;-71
2024/01/26 09:39:24;;;;;;;4.72;1.30;;;;;;;;;;4923484;29;20055;-69
2024/01/26 09:41:50;;;;;;;8.50;1.50;;;;;;;;;;4915285;29;20083;-69
2024/01/26 09:44:16;;;;;;;3.63;0.95;;;;;;;;;;4950503;29;20055;-69
2024/01/26 09:46:43;;;;;;;7.32;1.65;;;;;;;;;;4950690;29;20035;-69
2024/01/26 09:49:10;;;;;;;4.22;1.08;;;;;;;;;;4945653;29;20058;-67
2024/01/26 09:51:36;;;;;;;4.30;1.00;;;;;;;;;;4934567;29;20039;-66
2024/01/26 09:54:02;;;;;;;7.75;1.88;;;;;;;;;;4951078;29;20122;-65
2024/01/26 09:56:29;;;;;;;12.30;1.60;;;;;;;;;;4934728;29;20074;-69
2024/01/26 09:58:55;;;;;;;12.45;1.35;;;;;;;;;;4951706;29;20085;-66
2024/01/26 10:01:22;;;;;;;7.60;1.30;;;;;;;;;;4938347;29;20599;-69
2024/01/26 10:03:48;;;;;;;11.85;1.70;;;;;;;;;;4918739;29;20070;-69
2024/01/26 10:06:14;;;;;;;7.30;1.30;;;;;;;;;;4931027;29;20087;-68
2024/01/26 10:08:41;;;;;;;8.18;1.20;;;;;;;;;;4950267;29;20043;-74
2024/01/26 10:11:07;;;;;;;10.80;1.40;;;;;;;;;;4933624;29;20051;-71
2024/01/26 10:13:33;;;;;;;10.98;2.00;;;;;;;;;;4929537;29;20050;-69
2024/01/26 10:16:09;;;;;;;12.73;1.73;;;;;;;;;;4934548;29;20102;-69
2024/01/26 10:18:53;;;;;;;11.65;2.10;;;;;;;;;;4951309;29;20043;-67
2024/01/26 10:21:20;;;;;;;12.30;2.00;;;;;;;;;;4940651;29;20044;-67
2024/01/26 10:23:46;;;;;;;15.60;2.00;;;;;;;;;;4946446;29;20054;-67
2024/01/26 10:26:14;;;;;;;12.02;2.10;;;;;;;;;;4946007;29;20043;-69
2024/01/26 10:28:40;;;;;;;21.25;2.42;;;;;;;;;;4934023;28;20047;-70
2024/01/26 10:31:06;;;;;;;13.77;3.78;;;;;;;;;;4933939;29;20043;-69
2024/01/26 10:33:32;;;;;;;17.80;3.28;;;;;;;;;;4950804;29;20602;-69
2024/01/26 10:36:00;;;;;;;20.70;2.72;;;;;;;;;;4933822;29;20051;-69
2024/01/26 10:38:26;;;;;;;18.75;2.47;;;;;;;;;;4932048;29;20051;-68
2024/01/26 10:40:56;;;;;;;13.27;1.90;;;;;;;;;;4935101;29;20099;-68
2024/01/26 10:43:22;;;;;;;16.48;2.70;;;;;;;;;;4939892;29;20050;-69
2024/01/26 10:45:48;;;;;;;15.77;2.58;;;;;;;;;;4916277;29;20044;-70
2024/01/26 10:48:16;;;;;;;13.98;2.35;;;;;;;;;;4935906;29;20724;-71
2024/01/26 10:50:41;;;;;;;12.32;2.15;;;;;;;;;;4916627;29;20043;-71
2024/01/26 10:53:08;;;;;;;9.77;2.10;;;;;;;;;;4909443;29;20046;-71
2024/01/26 10:55:35;;;;;;;20.45;2.47;;;;;;;;;;4939191;29;20039;-71
2024/01/26 10:58:02;;;;;;;19.75;3.00;;;;;;;;;;4932255;29;20040;-70
2024/01/26 11:00:28;;;;;;;13.07;2.60;;;;;;;;;;4919623;29;20486;-69
2024/01/26 11:02:55;;;;;;;19.02;2.33;;;;;;;;;;4908464;29;20054;-71
2024/01/26 11:05:21;;;;;;;17.60;2.83;;;;;;;;;;4910415;29;20051;-70
2024/01/26 11:07:47;;;;;;;18.38;2.53;;;;;;;;;;4918899;29;20035;-69
2024/01/26 11:10:24;;;;;;;19.55;2.53;;;;;;;;;;4933425;29;20039;-72
2024/01/26 11:13:03;;;;;;;14.98;2.38;;;;;;;;;;4918672;29;20043;-71
2024/01/26 11:15:30;;;;;;;18.25;2.58;;;;;;;;;;4918202;29;20051;-69
2024/01/26 11:17:56;;;;;;;16.50;2.67;;;;;;;;;;4929284;29;20147;-68
2024/01/26 11:20:34;;;;;;;11.38;2.53;;;;;;;;;;4936961;29;20054;-69
2024/01/26 11:23:14;;;;;;;16.25;2.85;;;;;;;;;;4927854;29;20055;-69
2024/01/26 11:25:53;;;;;;;20.60;3.17;;;;;;;;;;4905096;29;20051;-68
2024/01/26 11:28:25;;;;;;;9.90;2.42;;;;;;;;;;4926333;29;20047;-70
2024/01/26 11:30:54;;;;;;;14.77;2.65;;;;;;;;;;4919500;29;20110;-70
2024/01/26 11:33:21;;;;;;;23.33;3.42;;;;;;;;;;4914871;29;20091;-70
2024/01/26 11:35:47;;;;;;;20.65;3.17;;;;;;;;;;4898665;29;20084;-68
2024/01/26 11:38:14;;;;;;;15.68;2.90;;;;;;;;;;4912645;29;20052;-71
2024/01/26 11:40:40;;;;;;;17.52;2.50;;;;;;;;;;4918272;29;20047;-69
2024/01/26 11:43:07;;;;;;;19.08;3.17;;;;;;;;;;4927183;29;20052;-71
2024/01/26 11:45:33;;;;;;;24.58;2.90;;;;;;;;;;4920896;29;20062;-70
2024/01/26 11:47:59;;;;;;;25.02;2.85;;;;;;;;;;4923081;29;20044;-70
2024/01/26 11:50:25;;;;;;;18.95;2.22;;;;;;;;;;4936328;29;20043;-70
2024/01/26 11:52:51;;;;;;;17.33;2.97;;;;;;;;;;4910686;29;20043;-67
2024/01/26 11:55:17;;;;;;;18.63;2.67;;;;;;;;;;4945039;29;20083;-67
2024/01/26 11:57:43;;;;;;;16.33;2.70;;;;;;;;;;4935001;29;20040;-68
2024/01/26 12:00:10;;;;;;;16.65;2.67;;;;;;;;;;4920505;29;20044;-68
2024/01/26 12:02:36;;;;;;;19.63;2.80;;;;;;;;;;4949987;29;20090;-68
2024/01/26 12:05:03;;;;;;;17.83;3.20;;;;;;;;;;4939591;29;20039;-67
2024/01/26 12:07:29;;;;;;;23.13;3.40;;;;;;;;;;4943300;29;20043;-67
2024/01/26 12:09:55;;;;;;;20.17;3.40;;;;;;;;;;4948183;29;20417;-67
2024/01/26 12:12:21;;;;;;;18.27;3.10;;;;;;;;;;4943655;29;20055;-67
2024/01/26 12:14:47;;;;;;;14.70;3.28;;;;;;;;;;4953401;29;20043;-68
2024/01/26 12:17:13;;;;;;;17.75;3.10;;;;;;;;;;4953790;29;20129;-68
2024/01/26 12:19:39;;;;;;;21.35;3.42;;;;;;;;;;4951029;29;20126;-69
2024/01/26 12:22:10;;;;;;;19.98;2.67;;;;;;;;;;4949812;29;20059;-69
2024/01/26 12:24:36;;;;;;;21.30;3.35;;;;;;;;;;4938706;29;20098;-68
2024/01/26 12:27:02;;;;;;;19.05;3.45;;;;;;;;;;4934241;29;20040;-68
2024/01/26 12:29:31;;;;;;;23.58;4.05;;;;;;;;;;4935459;29;20098;-72
2024/01/26 12:31:58;;;;;;;26.65;3.55;;;;;;;;;;4941823;29;20079;-66
2024/01/26 12:34:28;;;;;;;13.50;3.28;;;;;;;;;;4934676;29;20417;-71
2024/01/26 12:36:58;;;;;;;21.85;2.65;;;;;;;;;;4903278;29;20051;-70
2024/01/26 12:39:24;;;;;;;18.98;2.70;;;;;;;;;;4933843;29;20046;-70
2024/01/26 12:41:50;;;;;;;18.98;2.30;;;;;;;;;;4932812;29;20047;-70
2024/01/26 12:44:16;;;;;;;16.27;2.50;;;;;;;;;;4902091;29;20099;-70
2024/01/26 12:46:42;;;;;;;20.15;3.05;;;;;;;;;;4934287;29;20055;-71
2024/01/26 12:49:08;;;;;;;20.02;3.17;;;;;;;;;;4908396;29;20103;-71
2024/01/26 12:51:34;;;;;;;19.85;2.97;;;;;;;;;;4905230;29;20044;-70
2024/01/26 12:54:00;;;;;;;21.90;3.00;;;;;;;;;;4932651;29;20044;-70
2024/01/26 12:56:27;;;;;;;20.48;2.63;;;;;;;;;;4904056;29;20047;-70
2024/01/26 12:58:53;;;;;;;17.98;3.08;;;;;;;;;;4933598;29;20097;-68
2024/01/26 13:01:22;;;;;;;15.07;2.17;;;;;;;;;;4941852;29;20046;-68
2024/01/26 13:03:49;;;;;;;14.85;2.55;;;;;;;;;;4935845;29;20529;-68
2024/01/26 13:06:15;;;;;;;23.13;2.80;;;;;;;;;;4952660;29;20070;-70
2024/01/26 13:08:41;;;;;;;19.63;2.55;;;;;;;;;;4916603;29;20198;-70
2024/01/26 13:11:09;;;;;;;14.13;2.50;;;;;;;;;;4914115;29;20446;-71
2024/01/26 13:13:35;;;;;;;15.63;2.70;;;;;;;;;;4934649;29;20095;-68
2024/01/26 13:16:01;;;;;;;19.60;2.97;;;;;;;;;;4934631;29;20564;-69
2024/01/26 13:18:27;;;;;;;15.88;2.55;;;;;;;;;;4919993;29;20096;-69
2024/01/26 13:20:54;;;;;;;10.50;1.77;;;;;;;;;;4906670;29;20138;-70
2024/01/26 13:23:20;;;;;;;12.57;2.55;;;;;;;;;;4953007;29;20059;-70
2024/01/26 13:25:47;;;;;;;18.45;2.40;;;;;;;;;;4947886;29;20040;-69
2024/01/26 13:28:13;;;;;;;17.92;3.08;;;;;;;;;;4929165;29;20098;-70
2024/01/26 13:30:39;;;;;;;12.88;2.38;;;;;;;;;;4952086;29;20430;-72
2024/01/26 13:33:06;;;;;;;11.25;1.98;;;;;;;;;;4952601;29;20047;-69
2024/01/26 13:35:32;;;;;;;13.90;2.15;;;;;;;;;;4935581;29;20679;-70
2024/01/26 13:37:58;;;;;;;9.07;1.58;;;;;;;;;;4934596;29;20071;-72
2024/01/26 13:40:24;;;;;;;21.95;2.22;;;;;;;;;;4919391;29;20418;-72
2024/01/26 13:42:50;;;;;;;10.35;1.83;;;;;;;;;;4914695;29;20056;-72
2024/01/26 13:45:16;;;;;;;10.55;2.15;;;;;;;;;;4910136;29;20078;-72
2024/01/26 13:47:42;;;;;;;13.32;1.95;;;;;;;;;;4926607;29;20073;-70
2024/01/26 13:50:09;;;;;;;12.23;1.90;;;;;;;;;;4932460;29;20574;-69
2024/01/26 13:52:35;;;;;;;10.52;1.98;;;;;;;;;;4919979;29;20040;-69
2024/01/26 13:55:01;;;;;;;9.05;1.30;;;;;;;;;;4951878;29;20079;-69
2024/01/26 13:57:28;;;;;;;7.65;1.95;;;;;;;;;;4951584;29;20459;-73
2024/01/26 13:59:57;;;;;;;7.90;1.40;;;;;;;;;;4925590;29;20157;-69
2024/01/26 14:02:23;;;;;;;12.02;1.88;;;;;;;;;;4929485;29;20078;-69
2024/01/26 14:04:49;;;;;;;13.77;1.80;;;;;;;;;;4932140;29;20047;-65
2024/01/26 14:07:15;;;;;;;11.57;2.00;;;;;;;;;;4941021;29;20036;-70
2024/01/26 14:09:41;;;;;;;9.15;1.95;;;;;;;;;;4935520;29;20085;-68
2024/01/26 14:12:07;;;;;;;10.63;1.75;;;;;;;;;;4938170;29;20044;-67
2024/01/26 14:14:33;;;;;;;7.97;1.60;;;;;;;;;;4918881;29;20091;-67
2024/01/26 14:17:00;;;;;;;9.68;1.60;;;;;;;;;;4928139;29;20469;-67
2024/01/26 14:19:26;;;;;;;10.98;2.15;;;;;;;;;;4913154;29;20163;-67